Contrarian — 2FAJ3 — position and weather

sailwx.info

Track history (hours):
 
Tides and Currents Weather Stations Pressure Air Temp Water Temp Dewpoint Dewpoint Depression Visibility Wind Speed Wind Dir Waves Ship Positions

Contrarian

Last reported at 2015-Mar-03 23:31 UTC. Time now 2015-Mar-04 00:08 UTC.
Position N 17°01' W 061°47'.

Length 20 m.

Type: Sailing vessel. MMSI: 235089609.

Date/timePositionNaut miles runAvg speedWind from/ knotsBaromVisibWave heightAir tempDewpointWater temp
2015-Mar-03 23:31N 17°01' W 061°47'0 0.0
2015-Mar-03 22:31N 17°01' W 061°47'0 0.0
2015-Mar-03 21:31N 17°01' W 061°47'0 0.0
2015-Mar-03 20:31N 17°01' W 061°47'0 0.0
2015-Mar-03 19:31N 17°01' W 061°47'0 0.0
2015-Mar-03 18:31N 17°01' W 061°47'0 0.0
2015-Mar-03 17:31N 17°01' W 061°47'0 0.0
2015-Mar-03 16:31N 17°01' W 061°47'0 0.0
2015-Mar-03 15:31N 17°01' W 061°47'0 0.0
2015-Mar-03 14:31N 17°01' W 061°47'0 0.0
2015-Mar-03 13:31N 17°01' W 061°47'0 0.0
2015-Mar-03 12:31N 17°01' W 061°47'0 0.0
2015-Mar-03 11:31N 17°01' W 061°47'0 0.0
2015-Mar-03 10:31N 17°01' W 061°47'0 0.0
2015-Mar-03 09:31N 17°01' W 061°47'0 0.0
2015-Mar-03 08:31N 17°01' W 061°47'0 0.0
2015-Mar-03 07:31N 17°01' W 061°47'0 0.0
2015-Mar-03 06:31N 17°01' W 061°47'0 0.0
2015-Mar-03 05:31N 17°01' W 061°47'0 0.0
2015-Mar-03 04:31N 17°01' W 061°47'0 0.0
2015-Mar-03 03:31N 17°01' W 061°47'0 0.0
2015-Mar-03 02:31N 17°01' W 061°47'0 0.0
2015-Mar-03 01:31N 17°01' W 061°47'0 0.0
2015-Mar-03 00:31N 17°01' W 061°47'0 0.0
2015-Mar-02 23:31N 17°01' W 061°47'0 0.0
2015-Mar-02 22:31N 17°01' W 061°47'0 0.0
2015-Mar-02 21:31N 17°01' W 061°47'0 0.0
2015-Mar-02 20:31N 17°01' W 061°47'0 0.0
2015-Mar-02 19:31N 17°01' W 061°47'0 0.0
2015-Mar-02 18:31N 17°01' W 061°47'0 0.0
2015-Mar-02 17:31N 17°01' W 061°47'0 0.0
2015-Mar-02 16:31N 17°01' W 061°47'0 0.0
2015-Mar-02 15:31N 17°01' W 061°47'0 0.0
2015-Mar-02 14:31N 17°01' W 061°47'0 0.0
2015-Mar-02 13:31N 17°01' W 061°47'0 0.0
2015-Mar-02 12:31N 17°01' W 061°47'0 0.0
2015-Mar-02 11:31N 17°01' W 061°47'0 0.0
2015-Mar-02 10:31N 17°01' W 061°47'0 0.0
2015-Mar-02 09:31N 17°01' W 061°47'0 0.0
2015-Mar-02 08:31N 17°01' W 061°47'0 0.0
2015-Mar-02 07:31N 17°01' W 061°47'0 0.0
2015-Mar-02 06:31N 17°01' W 061°47'0 0.0
2015-Mar-02 05:31N 17°01' W 061°47'0 0.0
2015-Mar-02 04:31N 17°01' W 061°47'0 0.0
2015-Mar-02 03:31N 17°01' W 061°47'0 0.0
2015-Mar-02 02:31N 17°01' W 061°47'0 0.0
2015-Mar-02 01:31N 17°01' W 061°47'0 0.0
2015-Mar-02 00:31N 17°01' W 061°47'0 0.0
2015-Mar-01 23:31N 17°01' W 061°47'0 0.0
2015-Mar-01 22:31N 17°01' W 061°47'0 0.0
2015-Mar-01 21:31N 17°01' W 061°47'0 0.0
2015-Mar-01 20:31N 17°01' W 061°47'0 0.0
2015-Mar-01 19:31N 17°01' W 061°47'0 0.0
2015-Mar-01 18:31N 17°01' W 061°47'0 0.0
2015-Mar-01 17:31N 17°01' W 061°47'0 0.0
2015-Mar-01 16:31N 17°01' W 061°47'0 0.0
2015-Mar-01 15:31N 17°01' W 061°47'0 0.4
2015-Mar-01 14:33N 17°01' W 061°47'  
2015-Feb-26 19:12N 17°01' W 061°46'0 0.0
2015-Feb-26 18:33N 17°01' W 061°46'0 0.0
2015-Feb-26 17:33N 17°01' W 061°46'0 0.0
2015-Feb-26 16:33N 17°01' W 061°46'0 0.0
2015-Feb-26 15:33N 17°01' W 061°46'5 4.5
2015-Feb-26 14:30N 17°01' W 061°41'2 0.1
2015-Feb-25 16:28N 17°02' W 061°40'6 6.0
2015-Feb-25 15:34N 16°59' W 061°45'2 0.1
2015-Feb-24 21:33N 17°01' W 061°46'0 0.0
2015-Feb-24 20:33N 17°01' W 061°46'0 0.0
2015-Feb-24 19:34N 17°01' W 061°46'4 3.8
2015-Feb-24 18:33N 16°60' W 061°50'  
Track history (hours):
 
Tides and Currents Weather Stations Pressure Air Temp Water Temp Dewpoint Dewpoint Depression Visibility Wind Speed Wind Dir Waves Ship Positions

Contrarian

Last reported at 2015-Mar-03 23:31 UTC. Time now 2015-Mar-04 00:08 UTC.
Position N 17°01' W 061°47'.

Length 20 m.

Type: Sailing vessel. MMSI: 235089609.

Date/timePositionNaut miles runAvg speedWind from/ knotsBaromVisibWave heightAir tempDewpointWater temp
2015-Mar-03 23:31N 17°01' W 061°47'0 0.0
2015-Mar-03 22:31N 17°01' W 061°47'0 0.0
2015-Mar-03 21:31N 17°01' W 061°47'0 0.0
2015-Mar-03 20:31N 17°01' W 061°47'0 0.0
2015-Mar-03 19:31N 17°01' W 061°47'0 0.0
2015-Mar-03 18:31N 17°01' W 061°47'0 0.0
2015-Mar-03 17:31N 17°01' W 061°47'0 0.0
2015-Mar-03 16:31N 17°01' W 061°47'0 0.0
2015-Mar-03 15:31N 17°01' W 061°47'0 0.0
2015-Mar-03 14:31N 17°01' W 061°47'0 0.0
2015-Mar-03 13:31N 17°01' W 061°47'0 0.0
2015-Mar-03 12:31N 17°01' W 061°47'0 0.0
2015-Mar-03 11:31N 17°01' W 061°47'0 0.0
2015-Mar-03 10:31N 17°01' W 061°47'0 0.0
2015-Mar-03 09:31N 17°01' W 061°47'0 0.0
2015-Mar-03 08:31N 17°01' W 061°47'0 0.0
2015-Mar-03 07:31N 17°01' W 061°47'0 0.0
2015-Mar-03 06:31N 17°01' W 061°47'0 0.0
2015-Mar-03 05:31N 17°01' W 061°47'0 0.0
2015-Mar-03 04:31N 17°01' W 061°47'0 0.0
2015-Mar-03 03:31N 17°01' W 061°47'0 0.0
2015-Mar-03 02:31N 17°01' W 061°47'0 0.0
2015-Mar-03 01:31N 17°01' W 061°47'0 0.0
2015-Mar-03 00:31N 17°01' W 061°47'0 0.0
2015-Mar-02 23:31N 17°01' W 061°47'0 0.0
2015-Mar-02 22:31N 17°01' W 061°47'0 0.0
2015-Mar-02 21:31N 17°01' W 061°47'0 0.0
2015-Mar-02 20:31N 17°01' W 061°47'0 0.0
2015-Mar-02 19:31N 17°01' W 061°47'0 0.0
2015-Mar-02 18:31N 17°01' W 061°47'0 0.0
2015-Mar-02 17:31N 17°01' W 061°47'0 0.0
2015-Mar-02 16:31N 17°01' W 061°47'0 0.0
2015-Mar-02 15:31N 17°01' W 061°47'0 0.0
2015-Mar-02 14:31N 17°01' W 061°47'0 0.0
2015-Mar-02 13:31N 17°01' W 061°47'0 0.0
2015-Mar-02 12:31N 17°01' W 061°47'0 0.0
2015-Mar-02 11:31N 17°01' W 061°47'0 0.0
2015-Mar-02 10:31N 17°01' W 061°47'0 0.0
2015-Mar-02 09:31N 17°01' W 061°47'0 0.0
2015-Mar-02 08:31N 17°01' W 061°47'0 0.0
2015-Mar-02 07:31N 17°01' W 061°47'0 0.0
2015-Mar-02 06:31N 17°01' W 061°47'0 0.0
2015-Mar-02 05:31N 17°01' W 061°47'0 0.0
2015-Mar-02 04:31N 17°01' W 061°47'0 0.0
2015-Mar-02 03:31N 17°01' W 061°47'0 0.0
2015-Mar-02 02:31N 17°01' W 061°47'0 0.0
2015-Mar-02 01:31N 17°01' W 061°47'0 0.0
2015-Mar-02 00:31N 17°01' W 061°47'0 0.0
2015-Mar-01 23:31N 17°01' W 061°47'0 0.0
2015-Mar-01 22:31N 17°01' W 061°47'0 0.0
2015-Mar-01 21:31N 17°01' W 061°47'0 0.0
2015-Mar-01 20:31N 17°01' W 061°47'0 0.0
2015-Mar-01 19:31N 17°01' W 061°47'0 0.0
2015-Mar-01 18:31N 17°01' W 061°47'0 0.0
2015-Mar-01 17:31N 17°01' W 061°47'0 0.0
2015-Mar-01 16:31N 17°01' W 061°47'0 0.0
2015-Mar-01 15:31N 17°01' W 061°47'0 0.4
2015-Mar-01 14:33N 17°01' W 061°47'  
2015-Feb-26 19:12N 17°01' W 061°46'0 0.0
2015-Feb-26 18:33N 17°01' W 061°46'0 0.0
2015-Feb-26 17:33N 17°01' W 061°46'0 0.0
2015-Feb-26 16:33N 17°01' W 061°46'0 0.0
2015-Feb-26 15:33N 17°01' W 061°46'5 4.5
2015-Feb-26 14:30N 17°01' W 061°41'2 0.1
2015-Feb-25 16:28N 17°02' W 061°40'6 6.0
2015-Feb-25 15:34N 16°59' W 061°45'2 0.1
2015-Feb-24 21:33N 17°01' W 061°46'0 0.0
2015-Feb-24 20:33N 17°01' W 061°46'0 0.0
2015-Feb-24 19:34N 17°01' W 061°46'4 3.8
2015-Feb-24 18:33N 16°60' W 061°50'  

Dump ship's entire track history